createdAt,value
2023-12-22T00:01:29.117Z,7.70
2023-12-22T00:04:19.462Z,3.77
2023-12-22T00:07:07.668Z,3.65
2023-12-22T00:09:53.058Z,1.35
2023-12-22T00:12:39.522Z,1.10
2023-12-22T00:15:26.931Z,2.35
2023-12-22T00:18:14.128Z,1.53
2023-12-22T00:21:03.041Z,1.98
2023-12-22T00:23:53.943Z,10.27
2023-12-22T00:26:39.227Z,1.88
2023-12-22T00:29:29.477Z,2.85
2023-12-22T00:32:14.746Z,2.20
2023-12-22T00:35:00.116Z,6.53
2023-12-22T00:37:47.018Z,14.70
2023-12-22T00:40:32.540Z,9.07
2023-12-22T00:43:17.840Z,6.15
2023-12-22T00:46:11.138Z,2.67
2023-12-22T00:48:56.671Z,3.40
2023-12-22T00:51:44.148Z,8.05
2023-12-22T00:54:31.243Z,2.75
2023-12-22T00:57:16.866Z,3.22
2023-12-22T01:00:13.164Z,5.00
2023-12-22T01:03:00.637Z,1.80
2023-12-22T01:05:51.435Z,4.25
2023-12-22T01:08:40.474Z,3.75
2023-12-22T01:11:25.682Z,3.67
2023-12-22T01:14:14.278Z,3.50
2023-12-22T01:17:02.362Z,6.80
2023-12-22T01:19:47.804Z,3.80
2023-12-22T01:22:34.256Z,10.18
2023-12-22T01:25:19.528Z,5.95
2023-12-22T01:28:10.940Z,2.57
2023-12-22T01:30:56.126Z,2.85
2023-12-22T01:33:44.498Z,4.65
2023-12-22T01:36:29.906Z,5.40
2023-12-22T01:39:26.924Z,3.92
2023-12-22T01:42:12.272Z,7.57
2023-12-22T01:44:59.813Z,5.63
2023-12-22T01:47:49.080Z,5.43
2023-12-22T01:50:34.439Z,8.18
2023-12-22T01:53:25.286Z,9.23
2023-12-22T01:56:13.309Z,8.33
2023-12-22T01:59:00.562Z,3.83
2023-12-22T02:01:47.303Z,7.65
2023-12-22T02:04:35.459Z,5.90
2023-12-22T02:07:22.642Z,9.32
2023-12-22T02:10:14.649Z,10.47
2023-12-22T02:13:00.408Z,8.73
2023-12-22T02:15:47.572Z,9.90
2023-12-22T02:18:37.874Z,5.65
2023-12-22T02:21:25.638Z,8.40
2023-12-22T02:24:11.785Z,7.83
2023-12-22T02:27:01.313Z,6.18
2023-12-22T02:29:54.051Z,8.05
2023-12-22T02:32:42.214Z,6.20
2023-12-22T02:35:29.366Z,6.03
2023-12-22T02:38:15.262Z,4.23
2023-12-22T02:41:00.880Z,3.90
2023-12-22T02:43:50.298Z,4.90
2023-12-22T02:46:35.714Z,6.70
2023-12-22T02:49:21.187Z,8.27
2023-12-22T02:52:11.984Z,3.73
2023-12-22T02:54:57.419Z,10.45
2023-12-22T02:57:42.967Z,3.83
2023-12-22T03:00:30.489Z,8.18
2023-12-22T03:03:15.992Z,4.43
2023-12-22T03:06:01.295Z,9.17
2023-12-22T03:08:49.650Z,6.68
2023-12-22T03:11:37.046Z,8.48
2023-12-22T03:14:22.102Z,8.38
2023-12-22T03:17:12.156Z,7.15
2023-12-22T03:20:00.176Z,12.40
2023-12-22T03:22:45.561Z,6.53
2023-12-22T03:25:30.781Z,5.45
2023-12-22T03:28:15.892Z,5.78
2023-12-22T03:31:01.173Z,10.15
2023-12-22T03:33:46.589Z,11.43
2023-12-22T03:36:31.901Z,9.55
2023-12-22T03:39:17.449Z,7.65
2023-12-22T03:42:02.634Z,11.98
2023-12-22T03:44:47.915Z,9.48
2023-12-22T03:47:33.403Z,7.00
2023-12-22T03:50:19.422Z,9.65
2023-12-22T03:53:10.914Z,7.20
2023-12-22T03:55:56.483Z,7.55
2023-12-22T03:58:41.633Z,4.63
2023-12-22T04:01:26.668Z,11.00
2023-12-22T04:04:14.213Z,10.07
2023-12-22T04:06:59.294Z,5.53
2023-12-22T04:09:44.655Z,8.23
2023-12-22T04:12:29.825Z,9.52
2023-12-22T04:15:15.144Z,5.00
2023-12-22T04:18:03.836Z,1.42
2023-12-22T04:20:55.889Z,3.40
2023-12-22T04:23:41.578Z,6.18
2023-12-22T04:26:30.226Z,7.60
2023-12-22T04:29:16.222Z,2.73
2023-12-22T04:32:01.555Z,12.88
2023-12-22T04:34:46.721Z,6.72
2023-12-22T04:37:32.196Z,6.40
2023-12-22T04:40:17.644Z,4.28
2023-12-22T04:43:05.038Z,9.60
2023-12-22T04:45:50.413Z,8.02
2023-12-22T04:48:35.852Z,7.43
2023-12-22T04:51:21.314Z,11.25
2023-12-22T04:54:12.503Z,5.88
2023-12-22T04:56:57.688Z,3.43
2023-12-22T04:59:42.931Z,7.25
2023-12-22T05:02:30.331Z,14.43
2023-12-22T05:05:21.518Z,7.65
2023-12-22T05:08:11.366Z,11.40
2023-12-22T05:10:59.204Z,4.30
2023-12-22T05:13:46.117Z,10.38
2023-12-22T05:16:32.634Z,9.02
2023-12-22T05:19:18.076Z,10.43
2023-12-22T05:22:09.387Z,7.35
2023-12-22T05:24:54.665Z,7.40
2023-12-22T05:27:40.279Z,8.18
2023-12-22T05:30:30.363Z,6.18
2023-12-22T05:33:15.327Z,7.72
2023-12-22T05:36:00.439Z,9.70
2023-12-22T05:38:45.842Z,6.47
2023-12-22T05:41:31.295Z,8.05
2023-12-22T05:44:16.596Z,6.35
2023-12-22T05:47:02.070Z,8.27
2023-12-22T05:49:47.899Z,5.25
2023-12-22T05:52:33.381Z,7.40
2023-12-22T05:55:18.680Z,12.73
2023-12-22T05:58:04.121Z,10.98
2023-12-22T06:00:49.766Z,11.30
2023-12-22T06:03:36.676Z,7.93
2023-12-22T06:06:24.047Z,3.90
2023-12-22T06:09:13.809Z,3.30
2023-12-22T06:12:13.793Z,9.98
2023-12-22T06:14:59.451Z,7.93
2023-12-22T06:17:44.948Z,11.48
2023-12-22T06:20:30.049Z,6.33
2023-12-22T06:23:15.655Z,8.85
2023-12-22T06:26:03.364Z,7.72
2023-12-22T06:28:50.359Z,8.30
2023-12-22T06:31:36.073Z,11.20
2023-12-22T06:34:21.350Z,10.83
2023-12-22T06:37:12.197Z,10.68
2023-12-22T06:40:11.646Z,4.70
2023-12-22T06:42:56.915Z,8.13
2023-12-22T06:45:42.307Z,10.35
2023-12-22T06:48:27.937Z,8.17
2023-12-22T06:51:24.856Z,7.22
2023-12-22T06:54:15.399Z,8.27
2023-12-22T06:57:02.123Z,6.03
2023-12-22T06:59:49.862Z,3.65
2023-12-22T07:02:38.454Z,12.07
2023-12-22T07:05:23.930Z,7.80
2023-12-22T07:08:12.613Z,6.82
2023-12-22T07:10:58.352Z,5.32
2023-12-22T07:13:46.795Z,7.68
2023-12-22T07:16:31.775Z,6.73
2023-12-22T07:19:20.080Z,8.80
2023-12-22T07:22:06.711Z,6.00
2023-12-22T07:24:57.092Z,5.35
2023-12-22T07:27:43.248Z,6.13
2023-12-22T07:30:28.719Z,7.27
2023-12-22T07:33:14.428Z,7.72
2023-12-22T07:35:59.795Z,6.63
2023-12-22T07:38:45.160Z,8.25
2023-12-22T07:41:30.511Z,7.93
2023-12-22T07:44:16.967Z,13.43
2023-12-22T07:47:04.386Z,16.02
2023-12-22T07:49:51.262Z,16.25
2023-12-22T07:52:40.098Z,11.18
2023-12-22T07:55:26.505Z,15.65
2023-12-22T07:58:15.171Z,8.37
2023-12-22T08:01:00.559Z,13.95
2023-12-22T08:03:45.814Z,21.55
2023-12-22T08:06:31.094Z,8.82
2023-12-22T08:09:16.631Z,16.40
2023-12-22T08:12:05.821Z,11.87
2023-12-22T08:14:51.315Z,12.38
2023-12-22T08:17:37.155Z,12.38
2023-12-22T08:20:28.869Z,13.75
2023-12-22T08:23:18.080Z,10.35
2023-12-22T08:26:08.937Z,11.43
2023-12-22T08:28:54.219Z,12.32
2023-12-22T08:31:39.703Z,7.97
2023-12-22T08:34:31.161Z,11.18
2023-12-22T08:37:16.502Z,15.30
2023-12-22T08:40:05.119Z,17.77
2023-12-22T08:42:50.562Z,19.98
2023-12-22T08:45:36.884Z,11.63
2023-12-22T08:48:22.004Z,8.73
2023-12-22T08:51:12.577Z,10.85
2023-12-22T08:53:59.806Z,10.80
2023-12-22T08:56:45.289Z,11.30
2023-12-22T08:59:30.591Z,13.52
2023-12-22T09:02:16.230Z,10.50
2023-12-22T09:05:08.552Z,12.10
2023-12-22T09:07:53.917Z,12.90
2023-12-22T09:10:39.412Z,9.93
2023-12-22T09:13:25.865Z,15.88
2023-12-22T09:16:21.681Z,17.77
2023-12-22T09:19:10.037Z,13.77
2023-12-22T09:21:57.681Z,9.17
2023-12-22T09:24:43.159Z,8.70
2023-12-22T09:27:31.649Z,5.65
2023-12-22T09:30:19.029Z,6.97
2023-12-22T09:33:05.506Z,7.03
2023-12-22T09:35:52.242Z,10.30
2023-12-22T09:38:40.238Z,9.70
2023-12-22T09:41:25.679Z,10.77
2023-12-22T09:44:23.599Z,6.60
2023-12-22T09:47:22.703Z,7.10
2023-12-22T09:50:09.606Z,11.50
2023-12-22T09:52:55.509Z,7.65
2023-12-22T09:55:47.226Z,7.15
2023-12-22T09:58:35.719Z,6.00
2023-12-22T10:01:23.930Z,6.25
2023-12-22T10:04:09.368Z,6.57
2023-12-22T10:07:01.719Z,4.32
2023-12-22T10:09:48.760Z,3.28
2023-12-22T10:12:35.076Z,3.63
2023-12-22T10:15:24.848Z,8.18
2023-12-22T10:18:17.379Z,3.50
2023-12-22T10:21:03.363Z,6.03
2023-12-22T10:23:49.494Z,3.53
2023-12-22T10:26:38.457Z,1.77
2023-12-22T10:29:26.173Z,3.53
2023-12-22T10:32:18.637Z,3.37
2023-12-22T10:35:07.574Z,2.65
2023-12-22T10:37:58.080Z,3.67
2023-12-22T10:40:47.142Z,5.05
2023-12-22T10:43:38.269Z,1.63
2023-12-22T10:46:28.624Z,6.37
2023-12-22T10:49:20.910Z,2.80
2023-12-22T10:52:06.428Z,4.43
2023-12-22T10:54:52.359Z,2.33
2023-12-22T10:57:41.442Z,2.45
2023-12-22T11:00:32.222Z,2.83
2023-12-22T11:03:19.984Z,2.42
2023-12-22T11:06:06.949Z,4.40
2023-12-22T11:08:54.561Z,3.15
2023-12-22T11:11:43.816Z,1.15
2023-12-22T11:14:30.536Z,1.83
2023-12-22T11:17:23.512Z,4.05
2023-12-22T11:20:21.818Z,4.00
2023-12-22T11:23:07.847Z,2.25
2023-12-22T11:25:56.862Z,3.03
2023-12-22T11:28:47.784Z,3.73
2023-12-22T11:31:33.359Z,1.60
2023-12-22T11:34:23.408Z,4.80
2023-12-22T11:37:09.524Z,1.75
2023-12-22T11:39:54.741Z,7.57
2023-12-22T11:42:48.219Z,1.80
2023-12-22T11:45:37.759Z,2.67
2023-12-22T11:48:23.589Z,2.75
2023-12-22T11:51:17.661Z,2.42
2023-12-22T11:54:03.030Z,6.80
2023-12-22T11:56:51.349Z,2.00
2023-12-22T11:59:36.956Z,1.95
2023-12-22T12:02:26.572Z,2.05
2023-12-22T12:05:15.558Z,3.35
2023-12-22T12:08:07.922Z,3.95
2023-12-22T12:10:55.675Z,1.07
2023-12-22T12:13:46.293Z,3.95
2023-12-22T12:16:32.425Z,1.50
2023-12-22T12:19:26.834Z,4.85
2023-12-22T12:22:17.882Z,2.80
2023-12-22T12:25:04.859Z,1.50
2023-12-22T12:27:50.555Z,3.63
2023-12-22T12:30:39.590Z,4.10
2023-12-22T12:33:26.107Z,3.45
2023-12-22T12:36:12.659Z,2.38
2023-12-22T12:39:09.288Z,2.13
2023-12-22T12:42:00.672Z,6.63
2023-12-22T12:44:46.739Z,1.85
2023-12-22T12:47:32.133Z,4.15
2023-12-22T12:50:23.096Z,4.00
2023-12-22T12:53:11.349Z,5.37
2023-12-22T12:55:57.602Z,3.75
2023-12-22T12:58:42.889Z,5.80
2023-12-22T13:01:33.481Z,1.75
2023-12-22T13:04:39.903Z,4.47
2023-12-22T13:07:28.473Z,2.23
2023-12-22T13:10:41.124Z,2.97
2023-12-22T13:13:27.008Z,2.58
2023-12-22T13:16:12.573Z,3.25
2023-12-22T13:19:01.160Z,5.28
2023-12-22T13:21:46.850Z,1.80
2023-12-22T13:24:32.274Z,4.53
2023-12-22T13:27:21.213Z,6.35
2023-12-22T13:30:10.201Z,5.88
2023-12-22T13:32:55.805Z,2.75
2023-12-22T13:35:44.049Z,2.37
2023-12-22T13:38:29.372Z,2.88
2023-12-22T13:41:14.939Z,3.80
2023-12-22T13:44:06.921Z,2.85
2023-12-22T13:46:55.611Z,2.50
2023-12-22T13:49:43.425Z,3.80
2023-12-22T13:52:33.081Z,3.40
2023-12-22T13:55:25.239Z,3.65
2023-12-22T13:58:12.962Z,2.25
2023-12-22T14:00:58.254Z,5.68
2023-12-22T14:03:46.799Z,3.93
2023-12-22T14:06:32.755Z,3.22
2023-12-22T14:09:26.612Z,2.78
2023-12-22T14:12:14.289Z,2.42
2023-12-22T14:15:04.120Z,3.80
2023-12-22T14:17:49.363Z,2.93
2023-12-22T14:20:35.188Z,2.47
2023-12-22T14:23:29.088Z,3.70
2023-12-22T14:26:16.489Z,3.55
2023-12-22T14:29:01.738Z,3.70
2023-12-22T14:31:48.402Z,2.47
2023-12-22T14:34:34.586Z,4.95
2023-12-22T14:37:26.806Z,2.83
2023-12-22T14:40:14.401Z,2.30
2023-12-22T14:43:00.501Z,2.70
2023-12-22T14:45:45.697Z,1.67
2023-12-22T14:48:30.811Z,2.95
2023-12-22T14:51:15.774Z,4.55
2023-12-22T14:54:00.776Z,2.97
2023-12-22T14:56:46.037Z,3.92
2023-12-22T14:59:31.432Z,7.83
2023-12-22T15:02:17.303Z,3.40
2023-12-22T15:05:02.688Z,3.22
2023-12-22T15:07:48.400Z,2.53
2023-12-22T15:10:34.199Z,4.63
2023-12-22T15:13:25.549Z,3.07
2023-12-22T15:16:12.053Z,4.38
2023-12-22T15:18:57.472Z,2.70
2023-12-22T15:21:44.816Z,3.55
2023-12-22T15:24:32.420Z,2.97
2023-12-22T15:27:20.446Z,3.90
2023-12-22T15:30:06.764Z,2.47
2023-12-22T15:32:52.385Z,3.70
2023-12-22T15:35:37.809Z,3.55
2023-12-22T15:38:26.146Z,3.92
2023-12-22T15:41:11.353Z,6.27
2023-12-22T15:43:56.670Z,3.22
2023-12-22T15:46:42.249Z,10.20
2023-12-22T15:49:30.913Z,3.70
2023-12-22T15:52:18.225Z,5.10
2023-12-22T15:55:06.203Z,2.27
2023-12-22T15:57:55.970Z,6.43
2023-12-22T16:00:41.261Z,3.72
2023-12-22T16:03:31.312Z,6.10
2023-12-22T16:06:16.908Z,1.65
2023-12-22T16:09:03.127Z,4.20
2023-12-22T16:11:53.450Z,4.80
2023-12-22T16:14:38.447Z,4.05
2023-12-22T16:17:26.979Z,4.82
2023-12-22T16:20:13.051Z,5.30
2023-12-22T16:22:58.477Z,4.77
2023-12-22T16:25:43.869Z,1.77
2023-12-22T16:28:29.263Z,6.88
2023-12-22T16:31:15.026Z,4.30
2023-12-22T16:34:00.311Z,5.57
2023-12-22T16:36:47.737Z,3.63
2023-12-22T16:39:34.796Z,3.42
2023-12-22T16:42:28.012Z,7.60
2023-12-22T16:45:13.100Z,2.75
2023-12-22T16:48:00.835Z,3.38
2023-12-22T16:50:46.466Z,1.57
2023-12-22T16:53:33.040Z,4.05
2023-12-22T16:56:18.706Z,6.03
2023-12-22T16:59:04.182Z,3.97
2023-12-22T17:02:01.182Z,6.43
2023-12-22T17:04:57.836Z,3.23
2023-12-22T17:07:46.094Z,3.15
2023-12-22T17:10:31.674Z,3.83
2023-12-22T17:13:17.625Z,2.03
2023-12-22T17:16:02.774Z,2.88
2023-12-22T17:18:48.170Z,2.77
2023-12-22T17:21:33.803Z,9.98
2023-12-22T17:24:21.404Z,3.08
2023-12-22T17:27:06.854Z,5.22
2023-12-22T17:29:52.345Z,3.88
2023-12-22T17:32:37.872Z,5.27
2023-12-22T17:35:29.391Z,4.50
2023-12-22T17:38:14.834Z,7.10
2023-12-22T17:41:00.200Z,4.35
2023-12-22T17:43:45.821Z,2.33
2023-12-22T17:46:31.454Z,8.53
2023-12-22T17:49:16.685Z,4.75
2023-12-22T17:52:06.331Z,1.83
2023-12-22T17:54:52.562Z,2.75
2023-12-22T17:57:37.837Z,3.10
2023-12-22T18:00:30.849Z,7.07
2023-12-22T18:03:16.015Z,6.00
2023-12-22T18:06:01.461Z,6.22
2023-12-22T18:08:46.700Z,3.42
2023-12-22T18:11:32.189Z,5.43
2023-12-22T18:14:17.681Z,4.63
2023-12-22T18:17:06.207Z,3.15
2023-12-22T18:19:51.740Z,6.30
2023-12-22T18:22:38.402Z,3.85
2023-12-22T18:25:27.766Z,2.85
2023-12-22T18:28:18.741Z,7.67
2023-12-22T18:31:04.921Z,7.25
2023-12-22T18:33:50.430Z,7.85
2023-12-22T18:36:36.112Z,3.08
2023-12-22T18:39:28.522Z,2.47
2023-12-22T18:42:13.760Z,3.83
2023-12-22T18:44:59.876Z,5.22
2023-12-22T18:47:47.048Z,7.28
2023-12-22T18:50:32.682Z,4.57
2023-12-22T18:53:18.232Z,4.55
2023-12-22T18:56:04.424Z,3.50
2023-12-22T18:58:50.594Z,5.32
2023-12-22T19:01:44.244Z,9.77
2023-12-22T19:04:38.810Z,5.07
2023-12-22T19:07:29.072Z,2.63
2023-12-22T19:10:14.444Z,3.73
2023-12-22T19:12:59.677Z,3.17
2023-12-22T19:15:45.368Z,5.68
2023-12-22T19:18:34.162Z,3.63
2023-12-22T19:21:19.566Z,4.53
2023-12-22T19:24:05.245Z,2.77
2023-12-22T19:26:50.820Z,6.70
2023-12-22T19:29:36.035Z,5.47
2023-12-22T19:32:23.550Z,4.07
2023-12-22T19:35:09.045Z,4.00
2023-12-22T19:37:56.841Z,1.70
2023-12-22T19:40:43.621Z,5.13
2023-12-22T19:43:29.072Z,3.22
2023-12-22T19:46:14.552Z,2.45
2023-12-22T19:49:00.125Z,3.45
2023-12-22T19:51:45.515Z,3.43
2023-12-22T19:54:30.810Z,3.67
2023-12-22T19:57:16.931Z,5.10
2023-12-22T20:00:02.381Z,3.35
2023-12-22T20:02:47.797Z,2.58
2023-12-22T20:05:33.446Z,1.83
2023-12-22T20:08:19.412Z,3.20
2023-12-22T20:11:04.735Z,3.05
2023-12-22T20:13:50.131Z,2.92
2023-12-22T20:16:35.511Z,5.35
2023-12-22T20:19:21.092Z,1.43
2023-12-22T20:22:09.046Z,2.63
2023-12-22T20:24:54.360Z,2.17
2023-12-22T20:27:40.419Z,2.58
2023-12-22T20:30:28.127Z,4.97
2023-12-22T20:33:14.744Z,3.90
2023-12-22T20:35:59.802Z,3.00
2023-12-22T20:38:45.024Z,3.33
2023-12-22T20:41:32.958Z,2.78
2023-12-22T20:44:17.844Z,3.60
2023-12-22T20:47:03.204Z,4.00
2023-12-22T20:49:49.209Z,7.53
2023-12-22T20:52:35.547Z,3.08
2023-12-22T20:55:20.690Z,2.97
2023-12-22T20:58:06.181Z,5.68
2023-12-22T21:00:51.659Z,2.43
2023-12-22T21:03:37.533Z,3.13
2023-12-22T21:06:22.918Z,5.55
2023-12-22T21:09:10.081Z,4.30
2023-12-22T21:11:57.163Z,4.30
2023-12-22T21:14:42.563Z,5.47
2023-12-22T21:17:31.066Z,3.50
2023-12-22T21:20:17.238Z,7.25
2023-12-22T21:23:14.835Z,5.10
2023-12-22T21:26:01.276Z,5.32
2023-12-22T21:28:53.551Z,5.03
2023-12-22T21:31:46.105Z,3.55
2023-12-22T21:34:31.251Z,3.83
2023-12-22T21:37:16.921Z,5.35
2023-12-22T21:40:08.714Z,5.93
2023-12-22T21:42:56.911Z,5.03
2023-12-22T21:45:43.222Z,4.63
2023-12-22T21:48:31.398Z,4.72
2023-12-22T21:51:16.496Z,5.10
2023-12-22T21:54:02.706Z,2.88
2023-12-22T21:56:47.826Z,5.47
2023-12-22T21:59:32.946Z,3.83
2023-12-22T22:02:19.883Z,4.38
2023-12-22T22:05:05.777Z,4.40
2023-12-22T22:07:51.424Z,3.70
2023-12-22T22:10:36.810Z,2.90
2023-12-22T22:13:24.778Z,2.67
2023-12-22T22:16:09.990Z,4.55
2023-12-22T22:18:55.507Z,3.53
2023-12-22T22:21:43.085Z,5.22
2023-12-22T22:24:30.629Z,7.03
2023-12-22T22:27:15.897Z,4.90
2023-12-22T22:30:02.064Z,7.15
2023-12-22T22:32:47.012Z,3.63
2023-12-22T22:35:32.339Z,2.72
2023-12-22T22:38:20.360Z,9.13
2023-12-22T22:41:10.751Z,3.70
2023-12-22T22:43:55.982Z,3.63
2023-12-22T22:46:41.645Z,8.18
2023-12-22T22:49:33.998Z,3.20
2023-12-22T22:52:19.256Z,4.03
2023-12-22T22:55:04.892Z,2.13
2023-12-22T22:57:52.831Z,3.35
2023-12-22T23:00:38.677Z,3.90
2023-12-22T23:03:23.880Z,2.50
2023-12-22T23:06:09.116Z,3.73
2023-12-22T23:08:55.492Z,5.25
2023-12-22T23:11:41.907Z,2.63
2023-12-22T23:14:32.839Z,2.58
2023-12-22T23:17:18.120Z,6.35
2023-12-22T23:20:08.859Z,3.60
2023-12-22T23:22:55.050Z,1.80
2023-12-22T23:25:40.588Z,1.30
2023-12-22T23:28:34.840Z,3.95
2023-12-22T23:31:20.265Z,3.70
2023-12-22T23:34:05.534Z,2.93
2023-12-22T23:36:52.428Z,3.97
2023-12-22T23:39:40.656Z,2.42
2023-12-22T23:42:25.927Z,7.50
2023-12-22T23:45:11.074Z,4.65
2023-12-22T23:47:56.828Z,8.57
2023-12-22T23:50:46.727Z,2.40
2023-12-22T23:53:31.868Z,4.25
2023-12-22T23:56:17.413Z,5.55
2023-12-22T23:59:02.713Z,3.30
